Time;durP1;ratioP1;P1;durP2;ratioP2;P2;SDS_P1;SDS_P2;PMS_P1;PMS_P2;Temp;Humidity;BMP_temperature;BMP_pressure;BME280_temperature;BME280_humidity;BME280_pressure;Samples;Min_cycle;Max_cycle;Signal;HPM_P1;HPM_P2
2023/05/18 00:02:14;;;;;;;0.98;0.70;;;9.60;99.90;;;;;;4970596;28;20282;-63
2023/05/18 00:04:42;;;;;;;1.17;0.50;;;9.50;99.90;;;;;;4971232;28;20234;-63
2023/05/18 00:07:13;;;;;;;0.60;0.50;;;9.50;99.90;;;;;;4971773;28;20245;-63
2023/05/18 00:09:41;;;;;;;0.60;0.60;;;9.50;99.90;;;;;;4966570;28;20701;-63
2023/05/18 00:12:09;;;;;;;0.60;0.50;;;9.40;99.90;;;;;;4966105;28;20215;-63
2023/05/18 00:14:37;;;;;;;0.90;0.60;;;9.40;99.90;;;;;;4968324;28;20230;-63
2023/05/18 00:17:05;;;;;;;0.60;0.50;;;9.40;99.90;;;;;;4971515;28;20209;-63
2023/05/18 00:19:33;;;;;;;1.20;0.80;;;9.40;99.90;;;;;;4971405;28;20210;-63
2023/05/18 00:22:02;;;;;;;0.70;0.70;;;9.30;99.90;;;;;;4960903;28;20222;-62
2023/05/18 00:24:31;;;;;;;1.58;0.60;;;9.40;99.90;;;;;;4958577;28;20234;-63
2023/05/18 00:27:01;;;;;;;0.60;0.50;;;9.30;99.90;;;;;;4971423;28;20230;-63
2023/05/18 00:29:29;;;;;;;0.60;0.40;;;9.30;99.90;;;;;;4971386;28;20215;-63
2023/05/18 00:31:57;;;;;;;0.68;0.50;;;9.20;99.90;;;;;;4971272;28;20688;-63
2023/05/18 00:34:25;;;;;;;0.98;0.65;;;9.20;99.90;;;;;;4971189;28;20254;-63
2023/05/18 00:36:53;;;;;;;0.70;0.50;;;9.20;99.90;;;;;;4971237;28;20215;-64
2023/05/18 00:39:21;;;;;;;0.80;0.55;;;9.20;99.90;;;;;;4971237;28;20214;-64
2023/05/18 00:41:50;;;;;;;1.60;1.05;;;9.20;99.90;;;;;;4971116;28;20218;-63
2023/05/18 00:44:18;;;;;;;0.85;0.50;;;9.10;99.90;;;;;;4969653;28;20227;-64
2023/05/18 00:46:46;;;;;;;1.38;0.80;;;9.10;99.90;;;;;;4970839;28;20210;-64
2023/05/18 00:49:14;;;;;;;0.93;0.60;;;9.10;99.90;;;;;;4970070;28;20213;-64
2023/05/18 00:51:43;;;;;;;0.60;0.50;;;9.10;99.90;;;;;;4963137;28;20635;-63
2023/05/18 00:54:11;;;;;;;1.00;0.57;;;9.00;99.90;;;;;;4919926;28;1059226;-63
2023/05/18 00:56:41;;;;;;;0.90;0.45;;;9.10;99.90;;;;;;4972071;28;20633;-63
2023/05/18 00:59:11;;;;;;;0.70;0.60;;;9.00;99.90;;;;;;4969469;28;20297;-63
2023/05/18 01:01:42;;;;;;;1.15;1.02;;;9.00;99.90;;;;;;4968479;28;20206;-63
2023/05/18 01:04:13;;;;;;;0.60;0.50;;;9.00;99.90;;;;;;4968367;28;20315;-63
2023/05/18 01:06:42;;;;;;;0.60;0.50;;;9.00;99.90;;;;;;4968221;28;20584;-63
2023/05/18 01:09:12;;;;;;;0.77;0.50;;;9.00;99.90;;;;;;4969544;28;20305;-64
2023/05/18 01:11:55;;;;;;;0.70;0.50;;;9.00;99.90;;;;;;4967542;28;20426;-63
2023/05/18 01:14:33;;;;;;;0.60;0.40;;;8.90;99.90;;;;;;4965166;28;20720;-63
2023/05/18 01:17:10;;;;;;;0.70;0.50;;;8.90;99.90;;;;;;4971119;28;20221;-63
2023/05/18 01:20:07;;;;;;;0.60;0.50;;;8.90;99.90;;;;;;4971598;28;20202;-63
2023/05/18 01:23:01;;;;;;;0.60;0.50;;;9.00;99.90;;;;;;4952181;28;20211;-63
2023/05/18 01:25:39;;;;;;;0.60;0.40;;;9.10;99.90;;;;;;4960087;28;20637;-63
2023/05/18 01:28:15;;;;;;;0.73;0.68;;;9.00;99.90;;;;;;4952306;28;20258;-63
2023/05/18 01:30:44;;;;;;;0.60;0.50;;;9.00;99.90;;;;;;4952185;28;20210;-63
2023/05/18 01:33:13;;;;;;;0.60;0.43;;;9.20;99.90;;;;;;4962690;28;20733;-63
2023/05/18 01:35:46;;;;;;;0.60;0.50;;;9.20;99.90;;;;;;4956376;28;20238;-63
2023/05/18 01:38:17;;;;;;;0.60;0.40;;;9.10;99.90;;;;;;4952634;28;20203;-63
2023/05/18 01:40:52;;;;;;;0.60;0.40;;;9.10;99.90;;;;;;4967374;28;20670;-63
2023/05/18 01:43:26;;;;;;;0.70;0.40;;;9.20;99.90;;;;;;4956733;28;20217;-63
2023/05/18 01:45:57;;;;;;;1.45;0.65;;;9.10;99.90;;;;;;4963364;28;20207;-63
2023/05/18 01:48:26;;;;;;;0.75;0.63;;;9.10;99.90;;;;;;4958392;28;20597;-63
2023/05/18 01:50:58;;;;;;;0.80;0.70;;;9.10;99.90;;;;;;4959748;28;20214;-64
2023/05/18 01:53:34;;;;;;;2.78;0.60;;;9.10;99.90;;;;;;4952070;28;20207;-63
2023/05/18 01:56:06;;;;;;;0.50;0.40;;;9.00;99.90;;;;;;4969663;28;20202;-63
2023/05/18 01:58:37;;;;;;;0.60;0.40;;;9.10;99.90;;;;;;4957405;28;20203;-64
2023/05/18 02:01:05;;;;;;;0.55;0.40;;;9.10;99.90;;;;;;4963228;28;20211;-64
2023/05/18 02:03:33;;;;;;;1.13;0.60;;;9.10;99.90;;;;;;4960968;28;20203;-63
2023/05/18 02:06:01;;;;;;;0.60;0.45;;;9.00;99.90;;;;;;4955625;28;20267;-63
2023/05/18 02:08:29;;;;;;;1.50;0.60;;;9.00;99.90;;;;;;4965535;28;20280;-64
2023/05/18 02:10:57;;;;;;;0.60;0.50;;;9.00;99.90;;;;;;4971207;28;20673;-63
2023/05/18 02:13:25;;;;;;;0.60;0.50;;;9.10;99.90;;;;;;4971735;28;20674;-63
2023/05/18 02:15:54;;;;;;;0.60;0.57;;;9.10;99.90;;;;;;4971437;28;20214;-63
2023/05/18 02:18:22;;;;;;;0.70;0.60;;;9.00;99.90;;;;;;4970862;28;20210;-61
2023/05/18 02:20:50;;;;;;;0.60;0.45;;;9.10;99.90;;;;;;4967907;28;20214;-62
2023/05/18 02:23:18;;;;;;;0.60;0.40;;;9.10;99.90;;;;;;4969649;28;20265;-63
2023/05/18 02:25:47;;;;;;;0.70;0.50;;;9.20;99.90;;;;;;4970507;28;20237;-63
2023/05/18 02:28:15;;;;;;;0.70;0.50;;;9.20;99.90;;;;;;4972090;28;20222;-62
2023/05/18 02:30:42;;;;;;;0.60;0.50;;;9.10;99.90;;;;;;4967727;28;20661;-62
2023/05/18 02:33:12;;;;;;;0.60;0.50;;;9.00;99.90;;;;;;4970258;28;20625;-62
2023/05/18 02:35:40;;;;;;;0.70;0.60;;;9.00;99.90;;;;;;4971404;28;20226;-63
2023/05/18 02:38:08;;;;;;;1.05;0.70;;;9.10;99.90;;;;;;4969156;28;20912;-63
2023/05/18 02:40:36;;;;;;;0.70;0.55;;;9.10;99.90;;;;;;4971131;28;20213;-64
2023/05/18 02:43:04;;;;;;;0.93;0.80;;;9.00;99.90;;;;;;4969923;28;20261;-64
2023/05/18 02:45:32;;;;;;;1.40;0.70;;;8.90;99.90;;;;;;4971896;28;20236;-63
2023/05/18 02:48:00;;;;;;;0.70;0.60;;;8.90;99.90;;;;;;4970216;28;20214;-63
2023/05/18 02:50:30;;;;;;;1.02;0.40;;;8.90;99.90;;;;;;4966541;28;20823;-63
2023/05/18 02:52:58;;;;;;;1.02;0.60;;;8.70;99.90;;;;;;4972026;28;20202;-63
2023/05/18 02:55:27;;;;;;;0.80;0.80;;;8.70;99.90;;;;;;4971240;28;20292;-63
2023/05/18 02:57:56;;;;;;;6.25;0.60;;;8.60;99.90;;;;;;4970922;28;20210;-64
2023/05/18 03:00:24;;;;;;;0.60;0.40;;;8.70;99.90;;;;;;4971408;28;20229;-64
2023/05/18 03:02:52;;;;;;;0.60;0.47;;;8.60;99.90;;;;;;4967930;28;20295;-64
2023/05/18 03:05:22;;;;;;;0.70;0.60;;;8.60;99.90;;;;;;4971300;28;20657;-63
2023/05/18 03:07:53;;;;;;;0.60;0.40;;;8.60;99.90;;;;;;4971576;28;20244;-63
2023/05/18 03:10:21;;;;;;;0.63;0.57;;;8.70;99.90;;;;;;4968520;28;20234;-62
2023/05/18 03:12:49;;;;;;;0.60;0.40;;;8.70;99.90;;;;;;4970138;28;20643;-63
2023/05/18 03:15:18;;;;;;;1.00;0.60;;;8.80;99.90;;;;;;4973176;28;20600;-63
2023/05/18 03:17:46;;;;;;;0.60;0.57;;;8.90;99.90;;;;;;4973632;28;20693;-64
2023/05/18 03:20:14;;;;;;;0.90;0.65;;;8.90;99.90;;;;;;4973096;28;20788;-62
2023/05/18 03:22:42;;;;;;;0.70;0.63;;;8.90;99.90;;;;;;4958898;28;20211;-64
2023/05/18 03:25:11;;;;;;;0.60;0.50;;;8.90;99.90;;;;;;4970065;28;20293;-63
2023/05/18 03:27:39;;;;;;;0.60;0.50;;;8.90;99.90;;;;;;4973460;28;20215;-63
2023/05/18 03:30:08;;;;;;;0.60;0.40;;;9.00;99.90;;;;;;4973016;28;20273;-63
2023/05/18 03:32:36;;;;;;;0.70;0.60;;;8.90;99.90;;;;;;4973170;28;20217;-63
2023/05/18 03:35:05;;;;;;;1.90;0.90;;;8.70;99.90;;;;;;4973132;28;20602;-62
2023/05/18 03:37:33;;;;;;;2.80;0.80;;;8.50;99.90;;;;;;4973320;28;20210;-64
2023/05/18 03:40:12;;;;;;;0.60;0.50;;;8.60;99.90;;;;;;4972976;28;20598;-63
2023/05/18 03:42:41;;;;;;;0.90;0.68;;;8.60;99.90;;;;;;4972763;28;20289;-63
2023/05/18 03:45:10;;;;;;;0.82;0.50;;;8.70;99.90;;;;;;4972994;28;20227;-63
2023/05/18 03:47:39;;;;;;;1.83;0.60;;;8.60;99.90;;;;;;4973176;28;20205;-63
2023/05/18 03:50:08;;;;;;;0.60;0.40;;;8.40;99.90;;;;;;4972733;28;20238;-62
2023/05/18 03:52:36;;;;;;;0.70;0.60;;;8.40;99.90;;;;;;4959279;28;20207;-63
2023/05/18 03:55:05;;;;;;;1.25;0.60;;;8.40;99.90;;;;;;4970092;28;20247;-63
2023/05/18 03:57:34;;;;;;;0.70;0.50;;;8.30;99.90;;;;;;4972835;28;20225;-63
2023/05/18 04:00:12;;;;;;;0.75;0.60;;;8.40;99.90;;;;;;4972756;28;20272;-63
2023/05/18 04:02:40;;;;;;;0.70;0.50;;;8.40;99.90;;;;;;4972766;28;20210;-63
2023/05/18 04:05:08;;;;;;;0.70;0.50;;;8.40;99.90;;;;;;4967994;28;20656;-63
2023/05/18 04:07:42;;;;;;;1.88;0.47;;;8.40;99.90;;;;;;4972511;28;20213;-63
2023/05/18 04:10:11;;;;;;;0.60;0.47;;;8.40;99.90;;;;;;4972156;28;20235;-62
2023/05/18 04:12:40;;;;;;;0.70;0.60;;;8.50;99.90;;;;;;4972610;28;20847;-63
2023/05/18 04:15:09;;;;;;;0.80;0.80;;;8.70;99.90;;;;;;4969443;28;20764;-63
2023/05/18 04:17:38;;;;;;;0.70;0.40;;;8.80;99.90;;;;;;4969947;28;20202;-63
2023/05/18 04:20:11;;;;;;;1.15;0.50;;;8.70;99.90;;;;;;4972045;28;20215;-63
2023/05/18 04:22:44;;;;;;;1.17;0.60;;;8.90;99.90;;;;;;4964277;28;20254;-63
2023/05/18 04:25:13;;;;;;;0.88;0.70;;;8.80;99.90;;;;;;4971926;28;20775;-63
2023/05/18 04:27:44;;;;;;;0.77;0.60;;;8.90;99.90;;;;;;4972185;28;20257;-63
2023/05/18 04:30:13;;;;;;;1.75;0.50;;;8.80;99.90;;;;;;4972274;28;20229;-63
2023/05/18 04:32:41;;;;;;;1.45;0.70;;;8.80;99.90;;;;;;4972007;28;20207;-63
2023/05/18 04:35:11;;;;;;;0.82;0.60;;;8.80;99.90;;;;;;4971458;28;20265;-64
2023/05/18 04:37:40;;;;;;;1.05;0.60;;;8.80;99.90;;;;;;4971058;28;20492;-64
2023/05/18 04:40:12;;;;;;;1.33;0.63;;;9.00;99.90;;;;;;4977205;28;20206;-63
2023/05/18 04:42:44;;;;;;;1.52;0.65;;;9.00;99.90;;;;;;4968004;28;20206;-62
2023/05/18 04:45:14;;;;;;;0.95;0.60;;;9.00;99.90;;;;;;4968181;28;20412;-62
2023/05/18 04:47:45;;;;;;;0.70;0.50;;;9.20;99.90;;;;;;4966479;28;20202;-63
2023/05/18 04:50:14;;;;;;;0.60;0.50;;;9.20;99.90;;;;;;4968398;28;20230;-64
2023/05/18 04:52:46;;;;;;;0.60;0.50;;;9.40;99.90;;;;;;4967687;28;20610;-63
2023/05/18 04:55:18;;;;;;;0.60;0.50;;;9.50;99.90;;;;;;4967933;28;20242;-63
2023/05/18 04:57:48;;;;;;;0.70;0.65;;;9.30;99.90;;;;;;4964409;28;20577;-63
2023/05/18 05:00:17;;;;;;;0.60;0.40;;;9.30;99.90;;;;;;4968414;28;20807;-63
2023/05/18 05:02:45;;;;;;;0.80;0.50;;;9.20;99.90;;;;;;4980101;28;20229;-63
2023/05/18 05:05:13;;;;;;;0.65;0.50;;;9.30;99.90;;;;;;4969577;28;20574;-63
2023/05/18 05:07:41;;;;;;;0.90;0.70;;;9.30;99.90;;;;;;4969576;28;20205;-64
2023/05/18 05:10:10;;;;;;;0.70;0.60;;;9.40;99.90;;;;;;4957820;28;20219;-63
2023/05/18 05:12:38;;;;;;;0.80;0.70;;;9.40;99.90;;;;;;4958962;28;20732;-62
2023/05/18 05:15:09;;;;;;;0.60;0.50;;;9.40;99.90;;;;;;4960771;28;20234;-62
2023/05/18 05:17:37;;;;;;;0.60;0.50;;;9.40;99.90;;;;;;4962380;28;20618;-63
2023/05/18 05:20:06;;;;;;;1.70;0.85;;;9.40;99.90;;;;;;4961424;28;20258;-63
2023/05/18 05:22:34;;;;;;;0.60;0.50;;;9.50;99.90;;;;;;4952822;28;20211;-62
2023/05/18 05:25:02;;;;;;;0.60;0.57;;;9.60;99.90;;;;;;4959026;28;20230;-62
2023/05/18 05:27:34;;;;;;;0.75;0.50;;;9.60;99.90;;;;;;4958664;28;20199;-62
2023/05/18 05:30:03;;;;;;;2.10;0.80;;;9.70;99.90;;;;;;4963837;28;20697;-63
2023/05/18 05:32:33;;;;;;;0.80;0.60;;;9.70;99.90;;;;;;4972460;28;20218;-62
2023/05/18 05:35:01;;;;;;;1.65;0.70;;;9.80;99.90;;;;;;4967260;28;20709;-62
2023/05/18 05:37:29;;;;;;;0.60;0.40;;;9.80;99.90;;;;;;4970232;28;20214;-62
2023/05/18 05:39:58;;;;;;;0.60;0.40;;;9.90;99.90;;;;;;4967309;28;20217;-62
2023/05/18 05:42:26;;;;;;;0.60;0.40;;;10.00;99.90;;;;;;4972342;28;20234;-63
2023/05/18 05:44:54;;;;;;;0.70;0.60;;;10.00;99.90;;;;;;4971486;28;20226;-62
2023/05/18 05:47:21;;;;;;;0.80;0.60;;;10.10;99.90;;;;;;4970667;28;20269;-63
2023/05/18 05:49:51;;;;;;;0.60;0.43;;;10.10;99.90;;;;;;4966293;28;20230;-62
2023/05/18 05:52:19;;;;;;;1.77;0.80;;;10.20;99.90;;;;;;4967311;28;20222;-64
2023/05/18 05:54:47;;;;;;;0.70;0.40;;;10.30;99.90;;;;;;4968967;28;20246;-64
2023/05/18 05:57:15;;;;;;;0.90;0.50;;;10.40;99.90;;;;;;4969949;28;20203;-62
2023/05/18 05:59:43;;;;;;;0.60;0.50;;;10.40;99.90;;;;;;4968812;28;20210;-63
2023/05/18 06:02:11;;;;;;;0.60;0.50;;;10.50;99.90;;;;;;4971406;28;20270;-63
2023/05/18 06:04:39;;;;;;;0.70;0.57;;;10.60;99.90;;;;;;4970158;28;20908;-63
2023/05/18 06:07:08;;;;;;;0.60;0.50;;;10.60;99.90;;;;;;4970031;28;20217;-62
2023/05/18 06:09:36;;;;;;;0.70;0.55;;;10.70;99.90;;;;;;4969294;28;20218;-63
2023/05/18 06:12:04;;;;;;;1.05;0.70;;;10.80;99.90;;;;;;4970156;28;20231;-63
2023/05/18 06:14:32;;;;;;;0.70;0.50;;;10.90;99.90;;;;;;4969569;28;20289;-62
2023/05/18 06:17:00;;;;;;;0.70;0.52;;;11.00;99.90;;;;;;4969937;28;20281;-63
2023/05/18 06:19:28;;;;;;;0.70;0.70;;;10.90;99.90;;;;;;4971397;28;20210;-64
2023/05/18 06:21:56;;;;;;;0.70;0.50;;;10.90;99.90;;;;;;4969068;28;20214;-63
2023/05/18 06:24:25;;;;;;;0.60;0.40;;;11.00;99.90;;;;;;4969278;28;20911;-63
2023/05/18 06:26:53;;;;;;;0.70;0.60;;;10.90;99.90;;;;;;4971321;28;20218;-63
2023/05/18 06:29:21;;;;;;;0.70;0.50;;;11.00;99.90;;;;;;4966719;28;20207;-64
2023/05/18 06:31:49;;;;;;;2.22;0.90;;;11.10;99.90;;;;;;4971354;28;20238;-64
2023/05/18 06:34:17;;;;;;;1.02;0.70;;;11.20;99.90;;;;;;4968460;28;20293;-63
2023/05/18 06:36:45;;;;;;;0.60;0.55;;;11.40;99.90;;;;;;4967766;28;20587;-64
2023/05/18 06:39:13;;;;;;;0.80;0.80;;;11.60;99.90;;;;;;4971816;28;20218;-64
2023/05/18 06:41:43;;;;;;;0.75;0.60;;;11.60;99.90;;;;;;4971603;28;20211;-64
2023/05/18 06:44:11;;;;;;;0.73;0.55;;;11.50;99.90;;;;;;4967994;28;20238;-64
2023/05/18 06:46:40;;;;;;;0.77;0.75;;;11.50;99.90;;;;;;4968163;28;20206;-63
2023/05/18 06:49:08;;;;;;;0.70;0.55;;;11.60;99.90;;;;;;4957333;28;20685;-64
2023/05/18 06:51:36;;;;;;;0.75;0.60;;;11.70;99.90;;;;;;4958931;28;20222;-64
2023/05/18 06:54:04;;;;;;;0.70;0.50;;;11.90;99.90;;;;;;4960323;28;20251;-64
2023/05/18 06:56:32;;;;;;;0.70;0.50;;;11.90;99.90;;;;;;4964034;28;20582;-63
2023/05/18 06:59:01;;;;;;;1.63;0.60;;;11.90;99.90;;;;;;4965627;28;20265;-63
2023/05/18 07:01:29;;;;;;;0.60;0.50;;;11.90;99.90;;;;;;4971240;28;20590;-63
2023/05/18 07:03:57;;;;;;;2.15;0.80;;;11.90;99.90;;;;;;4967784;28;20673;-63
2023/05/18 07:06:25;;;;;;;0.90;0.70;;;12.00;99.90;;;;;;4968062;28;20234;-63
2023/05/18 07:08:53;;;;;;;0.60;0.45;;;12.10;99.90;;;;;;4967472;28;20222;-63
2023/05/18 07:11:21;;;;;;;0.90;0.75;;;12.20;99.90;;;;;;4967776;28;20246;-63
2023/05/18 07:13:50;;;;;;;0.60;0.50;;;12.40;99.90;;;;;;4966891;28;20231;-63
2023/05/18 07:16:19;;;;;;;0.60;0.40;;;12.70;99.90;;;;;;4969728;28;20265;-64
2023/05/18 07:18:47;;;;;;;0.70;0.60;;;12.80;99.90;;;;;;4965739;28;20301;-63
2023/05/18 07:21:15;;;;;;;0.65;0.60;;;12.80;99.90;;;;;;4964137;28;20286;-63
2023/05/18 07:23:43;;;;;;;0.88;0.70;;;12.90;99.90;;;;;;4965615;28;21588;-63
2023/05/18 07:26:11;;;;;;;0.57;0.40;;;13.10;99.90;;;;;;4968217;28;20210;-63
2023/05/18 07:28:39;;;;;;;1.40;1.23;;;13.10;99.90;;;;;;4967457;28;20203;-63
2023/05/18 07:31:07;;;;;;;0.60;0.40;;;13.00;99.90;;;;;;4966702;28;20222;-64
2023/05/18 07:33:36;;;;;;;0.60;0.40;;;12.90;99.90;;;;;;4966604;28;20304;-64
2023/05/18 07:36:08;;;;;;;0.60;0.50;;;13.00;99.90;;;;;;4966965;28;20273;-63
2023/05/18 07:38:36;;;;;;;0.60;0.50;;;13.10;99.90;;;;;;4967529;28;20218;-63
2023/05/18 07:41:04;;;;;;;1.35;0.60;;;13.10;99.90;;;;;;4967842;28;20283;-63
2023/05/18 07:43:32;;;;;;;0.60;0.50;;;13.20;99.90;;;;;;4963800;28;20215;-63
2023/05/18 07:46:00;;;;;;;1.33;0.70;;;13.30;99.90;;;;;;4970130;28;20682;-63
2023/05/18 07:48:28;;;;;;;0.80;0.80;;;13.40;99.90;;;;;;4966690;28;20206;-64
2023/05/18 07:50:57;;;;;;;0.60;0.40;;;13.60;99.90;;;;;;4966911;28;20227;-62
2023/05/18 07:53:25;;;;;;;0.68;0.50;;;13.50;99.90;;;;;;4967239;28;22052;-63
2023/05/18 07:55:53;;;;;;;0.70;0.50;;;13.80;99.90;;;;;;4965928;28;20853;-63
2023/05/18 07:58:21;;;;;;;0.80;0.57;;;13.80;99.90;;;;;;4966450;28;20226;-63
2023/05/18 08:00:49;;;;;;;0.60;0.40;;;13.60;99.90;;;;;;4969825;28;20583;-63
2023/05/18 08:03:18;;;;;;;0.70;0.60;;;13.70;99.90;;;;;;4964199;28;20203;-63
2023/05/18 08:05:46;;;;;;;0.70;0.60;;;13.80;99.90;;;;;;4965943;28;20238;-64
2023/05/18 08:08:15;;;;;;;0.57;0.40;;;14.10;99.90;;;;;;4965724;28;20206;-63
2023/05/18 08:10:43;;;;;;;0.60;0.40;;;14.10;99.90;;;;;;4965345;28;20257;-63
2023/05/18 08:13:11;;;;;;;0.60;0.40;;;14.10;99.90;;;;;;4965202;28;20297;-63
2023/05/18 08:15:40;;;;;;;0.60;0.50;;;14.10;99.90;;;;;;4968020;28;21158;-64
2023/05/18 08:18:08;;;;;;;0.60;0.40;;;14.10;99.90;;;;;;4967509;28;20275;-63
2023/05/18 08:20:36;;;;;;;0.60;0.50;;;14.30;99.90;;;;;;4964775;28;20206;-63
2023/05/18 08:23:04;;;;;;;0.60;0.43;;;14.50;99.90;;;;;;4964690;28;20519;-63
2023/05/18 08:25:33;;;;;;;0.90;0.50;;;14.50;99.90;;;;;;4965567;28;20230;-63
2023/05/18 08:28:01;;;;;;;0.50;0.30;;;14.60;99.90;;;;;;4966436;28;20218;-63
2023/05/18 08:30:30;;;;;;;0.57;0.40;;;14.70;99.90;;;;;;4965152;28;20202;-63
2023/05/18 08:32:58;;;;;;;0.50;0.40;;;14.90;99.90;;;;;;4966906;28;20706;-63
2023/05/18 08:35:26;;;;;;;2.15;0.47;;;15.00;99.90;;;;;;4966371;28;20317;-63
2023/05/18 08:37:54;;;;;;;0.75;0.60;;;15.20;99.90;;;;;;4966370;28;20283;-63
2023/05/18 08:40:23;;;;;;;0.60;0.50;;;15.40;99.90;;;;;;4965080;28;20266;-64
2023/05/18 08:43:03;;;;;;;0.88;0.40;;;15.60;99.90;;;;;;4966565;28;20217;-63
2023/05/18 08:45:39;;;;;;;0.50;0.40;;;15.80;99.90;;;;;;4966559;28;20288;-63
2023/05/18 08:48:10;;;;;;;0.73;0.45;;;16.00;99.90;;;;;;4963575;28;20288;-63
2023/05/18 08:50:41;;;;;;;0.50;0.30;;;16.00;99.90;;;;;;4962773;28;20211;-64
2023/05/18 08:53:11;;;;;;;0.60;0.47;;;16.10;99.90;;;;;;4961726;28;20230;-63
2023/05/18 08:55:41;;;;;;;0.50;0.40;;;16.30;99.90;;;;;;4965788;28;20731;-64
2023/05/18 08:58:14;;;;;;;0.60;0.40;;;16.40;99.90;;;;;;4966102;28;20218;-63
2023/05/18 09:00:41;;;;;;;0.52;0.40;;;16.40;99.90;;;;;;4964781;28;20202;-64
2023/05/18 09:03:10;;;;;;;0.73;0.47;;;16.50;99.90;;;;;;4967144;28;20202;-63
2023/05/18 09:05:39;;;;;;;0.60;0.40;;;16.80;99.90;;;;;;4966013;28;20229;-64
2023/05/18 09:08:09;;;;;;;0.60;0.40;;;17.10;99.90;;;;;;4964716;28;20229;-63
2023/05/18 09:10:39;;;;;;;0.70;0.70;;;16.90;99.90;;;;;;4965729;28;20214;-64
2023/05/18 09:13:08;;;;;;;0.63;0.50;;;16.80;99.90;;;;;;4966041;28;20701;-63
2023/05/18 09:15:38;;;;;;;0.50;0.30;;;17.10;99.90;;;;;;4962630;28;20230;-63
2023/05/18 09:18:06;;;;;;;0.80;0.70;;;17.00;99.90;;;;;;4962854;28;20306;-64
2023/05/18 09:20:34;;;;;;;0.57;0.43;;;17.10;99.90;;;;;;4963871;28;20223;-64
2023/05/18 09:23:02;;;;;;;0.60;0.40;;;17.30;99.90;;;;;;4965905;28;20348;-64
2023/05/18 09:25:33;;;;;;;0.57;0.45;;;17.40;99.90;;;;;;4966402;28;20752;-64
2023/05/18 09:28:03;;;;;;;0.60;0.40;;;17.60;99.90;;;;;;4966293;28;20260;-64
2023/05/18 09:30:41;;;;;;;0.50;0.40;;;17.80;98.60;;;;;;4965695;28;20285;-64
2023/05/18 09:33:17;;;;;;;0.60;0.45;;;17.90;99.50;;;;;;4963790;28;20275;-63
2023/05/18 09:35:46;;;;;;;0.95;0.40;;;17.80;98.80;;;;;;4962464;28;20284;-64
2023/05/18 09:38:20;;;;;;;0.80;0.80;;;18.00;99.90;;;;;;4967709;28;20285;-64
2023/05/18 09:40:50;;;;;;;1.13;0.50;;;18.10;98.60;;;;;;4965658;28;20606;-64
2023/05/18 09:43:18;;;;;;;0.98;0.95;;;17.90;98.20;;;;;;4965361;28;20207;-63
2023/05/18 09:45:49;;;;;;;0.80;0.60;;;18.20;99.20;;;;;;4965823;28;20605;-64
2023/05/18 09:48:17;;;;;;;0.70;0.50;;;18.20;99.10;;;;;;4965391;28;20879;-64
2023/05/18 09:50:45;;;;;;;1.40;0.93;;;18.50;98.40;;;;;;4963709;28;20287;-65
2023/05/18 09:53:14;;;;;;;0.60;0.50;;;18.60;97.80;;;;;;4966132;28;20276;-64
2023/05/18 09:55:48;;;;;;;0.60;0.40;;;18.80;97.50;;;;;;4964152;28;20242;-63
2023/05/18 09:58:17;;;;;;;0.60;0.50;;;18.90;97.70;;;;;;4967597;28;20232;-63
2023/05/18 10:00:50;;;;;;;0.60;0.50;;;18.80;97.30;;;;;;4959356;28;20211;-64
2023/05/18 10:03:20;;;;;;;0.50;0.32;;;18.90;96.70;;;;;;4964371;28;20214;-64
2023/05/18 10:05:49;;;;;;;1.00;0.50;;;18.80;96.90;;;;;;4964216;28;20690;-64
2023/05/18 10:08:17;;;;;;;0.60;0.40;;;18.90;96.40;;;;;;4964529;28;20211;-64
2023/05/18 10:10:48;;;;;;;0.60;0.40;;;19.00;95.00;;;;;;4967866;28;20206;-64
2023/05/18 10:13:18;;;;;;;0.60;0.50;;;18.60;95.70;;;;;;4965196;28;20222;-63
2023/05/18 10:15:52;;;;;;;0.60;0.45;;;18.30;96.80;;;;;;4966230;28;20294;-63
2023/05/18 10:18:22;;;;;;;0.60;0.47;;;18.20;96.50;;;;;;4962850;28;20268;-64
2023/05/18 10:20:53;;;;;;;0.50;0.40;;;18.80;96.10;;;;;;4967035;28;20213;-64
2023/05/18 10:23:22;;;;;;;0.55;0.35;;;19.10;95.40;;;;;;4969236;28;20206;-63
2023/05/18 10:25:52;;;;;;;0.60;0.40;;;19.40;95.70;;;;;;4969984;28;20611;-64
2023/05/18 10:28:24;;;;;;;0.60;0.47;;;19.70;96.30;;;;;;4968814;28;20226;-63
2023/05/18 10:30:55;;;;;;;0.60;0.38;;;19.80;93.30;;;;;;4967237;28;20214;-64
2023/05/18 10:33:26;;;;;;;0.60;0.40;;;19.50;93.80;;;;;;4966850;28;20705;-63
2023/05/18 10:35:57;;;;;;;0.60;0.50;;;19.00;94.20;;;;;;4967331;28;20203;-63
2023/05/18 10:38:28;;;;;;;0.63;0.47;;;18.50;95.50;;;;;;4968809;28;20210;-63
2023/05/18 10:40:58;;;;;;;0.50;0.40;;;18.60;94.30;;;;;;4968503;28;20206;-64
2023/05/18 10:43:27;;;;;;;0.75;0.45;;;18.60;95.10;;;;;;4969689;28;20199;-63
2023/05/18 10:46:00;;;;;;;0.70;0.60;;;19.00;95.20;;;;;;4968346;28;20202;-63
2023/05/18 10:48:30;;;;;;;0.80;0.63;;;19.40;93.80;;;;;;4968132;28;20211;-64
2023/05/18 10:50:58;;;;;;;1.08;0.40;;;19.30;93.30;;;;;;4968993;28;20215;-64
2023/05/18 10:53:28;;;;;;;0.60;0.40;;;19.10;94.00;;;;;;4966519;28;20226;-63
2023/05/18 10:55:56;;;;;;;2.10;0.55;;;19.20;94.80;;;;;;4970042;28;20265;-64
2023/05/18 10:58:26;;;;;;;3.53;0.70;;;19.40;93.90;;;;;;4966839;28;20207;-63
2023/05/18 11:00:58;;;;;;;0.60;0.40;;;20.10;93.90;;;;;;4967506;28;20206;-64
2023/05/18 11:03:27;;;;;;;0.55;0.40;;;20.60;92.90;;;;;;4968971;28;20206;-64
2023/05/18 11:06:07;;;;;;;0.63;0.50;;;20.40;91.80;;;;;;4968516;28;20211;-64
2023/05/18 11:08:43;;;;;;;0.60;0.50;;;19.90;93.10;;;;;;4967624;28;20206;-64
2023/05/18 11:11:10;;;;;;;0.70;0.60;;;20.10;92.40;;;;;;4967432;28;20206;-64
2023/05/18 11:13:44;;;;;;;0.50;0.40;;;20.30;92.60;;;;;;4967923;28;20223;-63
2023/05/18 11:16:15;;;;;;;0.60;0.60;;;19.90;91.90;;;;;;4967689;28;20254;-64
2023/05/18 11:18:45;;;;;;;0.50;0.40;;;20.00;91.90;;;;;;4968380;28;20260;-63
2023/05/18 11:21:34;;;;;;;0.50;0.40;;;19.70;92.50;;;;;;4967203;28;20219;-64
2023/05/18 11:24:17;;;;;;;0.60;0.50;;;20.00;93.40;;;;;;4964670;28;20243;-64
2023/05/18 11:26:46;;;;;;;0.60;0.40;;;20.40;92.20;;;;;;4968692;28;20218;-63
2023/05/18 11:29:18;;;;;;;0.60;0.47;;;20.00;91.70;;;;;;4966256;28;20646;-64
2023/05/18 11:31:49;;;;;;;0.70;0.47;;;19.80;92.60;;;;;;4966600;28;20651;-64
2023/05/18 11:34:37;;;;;;;0.60;0.40;;;19.90;92.10;;;;;;4964742;28;20290;-63
2023/05/18 11:37:08;;;;;;;0.73;0.50;;;20.00;92.60;;;;;;4967744;28;20206;-63
2023/05/18 11:39:37;;;;;;;0.60;0.40;;;19.70;91.40;;;;;;4968633;28;20261;-63
2023/05/18 11:42:23;;;;;;;0.50;0.40;;;19.50;91.80;;;;;;4967478;28;20214;-64
2023/05/18 11:44:55;;;;;;;0.60;0.50;;;19.70;92.20;;;;;;4972621;28;20563;-63
2023/05/18 11:47:30;;;;;;;0.50;0.30;;;20.10;92.80;;;;;;4972940;28;20265;-63
2023/05/18 11:49:59;;;;;;;1.10;0.75;;;19.90;91.60;;;;;;4976869;28;20206;-64
2023/05/18 11:52:27;;;;;;;0.98;0.57;;;19.80;90.40;;;;;;4972078;28;20214;-64
2023/05/18 11:54:56;;;;;;;0.55;0.40;;;19.50;91.70;;;;;;4957661;28;20234;-64
2023/05/18 11:57:26;;;;;;;0.70;0.60;;;19.70;91.30;;;;;;4972848;28;20207;-63
2023/05/18 11:59:56;;;;;;;0.90;0.90;;;19.90;90.90;;;;;;4972484;28;20206;-64
2023/05/18 12:02:26;;;;;;;1.10;0.60;;;20.20;90.80;;;;;;4972212;28;20692;-63
2023/05/18 12:04:56;;;;;;;0.70;0.63;;;20.40;89.70;;;;;;4972682;28;20226;-64
2023/05/18 12:07:24;;;;;;;0.60;0.50;;;20.60;90.90;;;;;;4972442;28;20214;-63
2023/05/18 12:09:52;;;;;;;0.57;0.40;;;20.80;90.10;;;;;;4972442;28;20298;-64
2023/05/18 12:12:22;;;;;;;0.57;0.40;;;20.80;89.40;;;;;;4972432;28;20233;-64
2023/05/18 12:14:55;;;;;;;0.50;0.40;;;20.30;89.10;;;;;;4964629;28;20229;-64
2023/05/18 12:17:29;;;;;;;1.45;0.65;;;20.50;90.70;;;;;;4972518;28;20204;-64
2023/05/18 12:19:57;;;;;;;0.75;0.73;;;20.70;89.40;;;;;;4965004;28;20575;-63
2023/05/18 12:22:26;;;;;;;0.60;0.40;;;20.90;88.10;;;;;;4963694;28;20286;-63
2023/05/18 12:24:54;;;;;;;0.60;0.47;;;21.10;90.10;;;;;;4965283;28;20621;-63
2023/05/18 12:27:25;;;;;;;0.60;0.43;;;21.00;88.90;;;;;;4972860;28;20211;-64
2023/05/18 12:29:53;;;;;;;1.25;0.40;;;21.60;90.20;;;;;;4964278;28;20199;-63
2023/05/18 12:32:21;;;;;;;1.15;0.70;;;21.60;85.90;;;;;;4972090;28;20623;-63
2023/05/18 12:34:51;;;;;;;0.60;0.40;;;21.80;88.60;;;;;;4971924;28;20230;-63
2023/05/18 12:37:20;;;;;;;0.50;0.40;;;21.50;86.10;;;;;;4972002;28;20211;-64
2023/05/18 12:39:54;;;;;;;1.15;0.60;;;20.70;86.30;;;;;;4964426;28;20215;-63
2023/05/18 12:42:22;;;;;;;0.57;0.40;;;20.70;88.80;;;;;;4971626;28;20277;-64
2023/05/18 12:44:50;;;;;;;0.70;0.40;;;20.50;88.80;;;;;;4963848;28;20227;-64
2023/05/18 12:47:18;;;;;;;0.93;0.60;;;21.30;88.80;;;;;;4965748;28;20261;-63
2023/05/18 12:49:49;;;;;;;0.60;0.52;;;21.60;88.00;;;;;;4963551;28;20652;-65
2023/05/18 12:52:21;;;;;;;0.60;0.40;;;21.60;86.80;;;;;;4956896;28;20205;-64
2023/05/18 12:54:53;;;;;;;0.60;0.55;;;21.50;84.70;;;;;;4993652;23;20235;-72
2023/05/18 12:57:25;;;;;;;0.80;0.50;;;21.90;85.90;;;;;;4990862;28;20772;-71
2023/05/18 12:59:53;;;;;;;0.60;0.50;;;21.90;83.90;;;;;;4988501;28;20569;-72
2023/05/18 13:02:30;;;;;;;1.02;0.50;;;22.20;84.50;;;;;;4990922;28;20207;-72
2023/05/18 13:05:09;;;;;;;0.60;0.40;;;21.90;83.30;;;;;;4983898;28;20234;-73